Terminal Aerodrome Forecast
Issued by NWS Tulsa, OK

Home | Current Version | Previous Version | Text Only | Print | Product List | Glossary On
Versions: 1 2 3 4 5 6 7 8 9 10 11 12 13 14 15 16 17 18 19 20 21
000
FTUS44 KTSA 222300
TAFTUL
TAF
KTUL 222321Z 2300/2324 18012KT P6SM BKN015
     FM230200 17010KT 5SM -DZ BR OVC010
     FM231200 17011KT P6SM OVC010 PROB30 2312/2318 6SM -SHRA BKN012
     FM231800 25015G30KT P6SM SCT015 BKN025=

USA.gov is the U.S. government's official web portal to all federal, state and local government web resources and services.